createdAt,value
2022-11-25T00:04:04.690Z,50.15
2022-11-25T00:09:10.476Z,56.67
2022-11-25T00:14:15.006Z,52.50
2022-11-25T00:19:17.515Z,54.08
2022-11-25T00:24:19.646Z,50.67
2022-11-25T00:29:21.595Z,50.97
2022-11-25T00:34:23.490Z,51.85
2022-11-25T00:39:27.027Z,47.65
2022-11-25T00:44:40.466Z,46.88
2022-11-25T00:49:47.408Z,47.30
2022-11-25T00:54:50.078Z,44.10
2022-11-25T00:59:52.045Z,39.90
2022-11-25T01:04:56.057Z,41.05
2022-11-25T01:09:58.099Z,39.38
2022-11-25T01:15:00.242Z,39.50
2022-11-25T01:20:03.926Z,36.58
2022-11-25T01:25:06.278Z,37.17
2022-11-25T01:30:09.136Z,38.10
2022-11-25T01:35:11.299Z,36.30
2022-11-25T01:40:13.452Z,34.70
2022-11-25T01:45:27.972Z,36.50
2022-11-25T01:50:32.772Z,37.20
2022-11-25T01:55:37.895Z,36.30
2022-11-25T02:00:40.046Z,37.83
2022-11-25T02:05:51.143Z,38.13
2022-11-25T02:10:55.570Z,36.08
2022-11-25T02:15:57.573Z,34.67
2022-11-25T02:20:59.916Z,38.35
2022-11-25T02:26:04.454Z,36.70
2022-11-25T02:31:08.285Z,36.40
2022-11-25T02:36:16.165Z,36.85
2022-11-25T02:41:22.563Z,36.55
2022-11-25T02:46:31.423Z,34.13
2022-11-25T02:51:36.870Z,35.00
2022-11-25T02:56:40.124Z,38.83
2022-11-25T03:01:43.529Z,37.15
2022-11-25T03:06:56.186Z,39.90
2022-11-25T03:12:21.054Z,36.47
2022-11-25T03:17:35.079Z,35.80
2022-11-25T03:22:51.934Z,33.53
2022-11-25T03:27:54.020Z,32.70
2022-11-25T03:32:56.127Z,32.47
2022-11-25T03:38:00.304Z,29.73
2022-11-25T03:43:02.993Z,29.27
2022-11-25T03:48:05.327Z,30.00
2022-11-25T03:53:07.463Z,31.80
2022-11-25T03:58:10.858Z,29.23
2022-11-25T04:03:13.141Z,31.08
2022-11-25T04:08:15.119Z,31.02
2022-11-25T04:13:19.312Z,32.85
2022-11-25T04:18:21.686Z,34.20
2022-11-25T04:23:27.161Z,30.23
2022-11-25T04:28:35.181Z,37.17
2022-11-25T04:33:37.591Z,34.03
2022-11-25T04:38:40.084Z,35.92
2022-11-25T04:43:43.438Z,38.03
2022-11-25T04:48:48.229Z,36.47
2022-11-25T04:53:50.987Z,35.37
2022-11-25T04:59:11.887Z,37.35
2022-11-25T05:04:20.528Z,37.45
2022-11-25T05:09:23.393Z,42.03
2022-11-25T05:14:36.393Z,39.85
2022-11-25T05:19:38.603Z,37.28
2022-11-25T05:24:40.865Z,37.95
2022-11-25T05:29:43.119Z,34.63
2022-11-25T05:34:46.304Z,37.10
2022-11-25T05:39:49.263Z,39.87
2022-11-25T05:45:17.643Z,36.65
2022-11-25T05:50:26.053Z,35.92
2022-11-25T05:55:56.359Z,32.50
2022-11-25T06:01:17.784Z,37.92
2022-11-25T06:06:21.714Z,40.90
2022-11-25T06:11:25.431Z,37.75
2022-11-25T06:21:59.766Z,39.83
2022-11-25T06:27:03.718Z,42.28
2022-11-25T06:32:07.378Z,36.78
2022-11-25T06:37:13.468Z,33.97
2022-11-25T06:42:15.403Z,35.70
2022-11-25T06:47:17.705Z,34.60
2022-11-25T06:52:19.999Z,31.30
2022-11-25T06:57:21.923Z,32.80
2022-11-25T07:02:24.112Z,55.83
2022-11-25T07:07:26.133Z,43.80
2022-11-25T07:12:28.122Z,31.83
2022-11-25T07:17:30.175Z,35.10
2022-11-25T07:22:32.177Z,35.90
2022-11-25T07:27:34.062Z,34.35
2022-11-25T07:32:36.095Z,50.03
2022-11-25T07:37:38.185Z,39.85
2022-11-25T07:42:40.151Z,32.83
2022-11-25T07:47:43.825Z,33.33
2022-11-25T07:52:45.851Z,48.50
2022-11-25T07:57:47.696Z,49.28
2022-11-25T08:02:49.773Z,43.42
2022-11-25T08:07:51.705Z,37.38
2022-11-25T08:12:53.631Z,95.78
2022-11-25T08:17:55.509Z,39.92
2022-11-25T08:22:57.365Z,57.22
2022-11-25T08:28:00.363Z,47.17
2022-11-25T08:33:05.888Z,42.65
2022-11-25T08:38:11.292Z,41.75
2022-11-25T08:43:13.791Z,40.25
2022-11-25T08:48:17.645Z,38.65
2022-11-25T08:53:21.147Z,45.53
2022-11-25T08:58:23.132Z,42.50
2022-11-25T09:03:25.858Z,44.70
2022-11-25T09:08:28.040Z,45.22
2022-11-25T09:13:30.199Z,47.10
2022-11-25T09:18:32.696Z,49.38
2022-11-25T09:23:34.584Z,47.75
2022-11-25T09:28:36.950Z,47.05
2022-11-25T09:33:39.020Z,43.97
2022-11-25T09:38:44.129Z,43.25
2022-11-25T09:44:17.680Z,45.25
2022-11-25T09:49:25.583Z,45.42
2022-11-25T09:54:35.268Z,55.63
2022-11-25T10:00:06.496Z,46.53
2022-11-25T10:05:34.931Z,51.58
2022-11-25T10:10:52.203Z,51.70
2022-11-25T10:15:57.940Z,46.63
2022-11-25T10:21:00.260Z,50.83
2022-11-25T10:26:14.538Z,47.85
2022-11-25T10:31:22.586Z,49.83
2022-11-25T10:36:32.375Z,50.67
2022-11-25T10:41:50.630Z,46.65
2022-11-25T10:47:14.284Z,48.97
2022-11-25T10:52:21.865Z,49.05
2022-11-25T10:57:28.867Z,50.17
2022-11-25T11:02:39.641Z,52.30
2022-11-25T11:07:44.049Z,51.28
2022-11-25T11:12:59.633Z,53.25
2022-11-25T11:18:23.220Z,52.10
2022-11-25T11:23:26.083Z,49.95
2022-11-25T11:28:38.206Z,54.00
2022-11-25T11:34:04.449Z,58.65
2022-11-25T11:39:35.921Z,54.30
2022-11-25T11:44:47.245Z,57.92
2022-11-25T11:50:13.911Z,48.00
2022-11-25T11:55:24.839Z,45.78
2022-11-25T12:00:30.357Z,53.70
2022-11-25T12:05:35.195Z,53.55
2022-11-25T12:11:10.495Z,53.38
2022-11-25T12:16:18.601Z,56.03
2022-11-25T12:21:46.172Z,54.63
2022-11-25T12:26:56.807Z,50.78
2022-11-25T12:32:36.864Z,45.63
2022-11-25T12:37:58.976Z,49.78
2022-11-25T12:43:21.537Z,48.45
2022-11-25T12:48:23.440Z,57.45
2022-11-25T12:53:47.707Z,48.22
2022-11-25T12:59:06.150Z,47.95
2022-11-25T13:04:17.402Z,55.25
2022-11-25T13:09:43.862Z,56.17
2022-11-25T13:15:13.534Z,51.78
2022-11-25T13:20:28.109Z,49.13
2022-11-25T13:25:30.275Z,58.20
2022-11-25T13:30:32.288Z,96.53
2022-11-25T13:35:35.909Z,58.35
2022-11-25T13:45:44.897Z,56.67
2022-11-25T13:51:10.066Z,60.22
2022-11-25T14:01:30.549Z,61.95
2022-11-25T14:06:51.241Z,59.75
2022-11-25T14:12:13.252Z,56.75
2022-11-25T14:17:27.196Z,54.40
2022-11-25T14:22:56.918Z,54.25
2022-11-25T14:28:19.043Z,54.05
2022-11-25T14:33:28.219Z,52.65
2022-11-25T14:38:40.496Z,57.42
2022-11-25T14:43:50.684Z,65.80
2022-11-25T14:49:03.298Z,70.32
2022-11-25T14:54:10.670Z,64.18
2022-11-25T14:59:12.970Z,54.40
2022-11-25T15:04:22.656Z,59.42
2022-11-25T15:09:28.266Z,61.80
2022-11-25T15:14:34.198Z,60.70
2022-11-25T15:19:37.670Z,128.57
2022-11-25T15:24:43.436Z,114.57
2022-11-25T15:29:47.649Z,105.60
2022-11-25T15:34:51.637Z,88.75
2022-11-25T15:45:21.085Z,76.22
2022-11-25T15:50:26.412Z,79.35
2022-11-25T15:55:33.556Z,97.97
2022-11-25T16:00:35.636Z,87.78
2022-11-25T16:05:37.800Z,70.05
2022-11-25T16:10:45.780Z,79.13
2022-11-25T16:16:15.782Z,78.97
2022-11-25T16:21:30.508Z,94.88
2022-11-25T16:26:48.271Z,84.55
2022-11-25T16:31:50.224Z,92.78
2022-11-25T16:36:52.675Z,106.78
2022-11-25T16:41:57.776Z,85.82
2022-11-25T16:47:00.155Z,104.75
2022-11-25T16:52:02.243Z,98.22
2022-11-25T16:57:05.341Z,83.68
2022-11-25T17:02:19.464Z,90.65
2022-11-25T17:07:38.363Z,90.95
2022-11-25T17:12:42.143Z,91.93
2022-11-25T17:17:47.585Z,94.30
2022-11-25T17:22:50.456Z,97.70
2022-11-25T17:27:53.994Z,179.43
2022-11-25T17:33:10.964Z,106.60
2022-11-25T17:38:18.993Z,101.05
2022-11-25T17:43:21.221Z,103.38
2022-11-25T17:48:24.494Z,119.95
2022-11-25T17:53:26.825Z,106.55
2022-11-25T17:58:29.843Z,103.57
2022-11-25T18:03:31.822Z,80.50
2022-11-25T18:08:34.110Z,73.40
2022-11-25T18:13:39.255Z,82.22
2022-11-25T18:18:41.260Z,74.00
2022-11-25T18:23:43.840Z,81.72
2022-11-25T18:28:46.453Z,75.95
2022-11-25T18:33:54.604Z,76.85
2022-11-25T18:39:02.860Z,74.22
2022-11-25T18:44:06.177Z,72.82
2022-11-25T18:49:13.455Z,84.65
2022-11-25T18:54:15.550Z,77.68
2022-11-25T18:59:25.159Z,74.50
2022-11-25T19:04:27.424Z,89.53
2022-11-25T19:09:29.691Z,94.32
2022-11-25T19:14:41.918Z,85.93
2022-11-25T19:19:43.904Z,85.65
2022-11-25T19:24:46.255Z,87.35
2022-11-25T19:29:48.157Z,88.57
2022-11-25T19:34:57.184Z,86.97
2022-11-25T19:39:59.159Z,78.95
2022-11-25T19:45:04.036Z,77.57
2022-11-25T19:50:06.797Z,88.57
2022-11-25T19:55:20.381Z,74.97
2022-11-25T20:00:23.938Z,83.13
2022-11-25T20:05:35.096Z,75.70
2022-11-25T20:10:37.181Z,75.50
2022-11-25T20:15:40.714Z,76.00
2022-11-25T20:20:43.157Z,78.30
2022-11-25T20:25:50.182Z,80.05
2022-11-25T20:30:52.964Z,93.18
2022-11-25T20:36:07.472Z,102.47
2022-11-25T20:41:11.575Z,109.80
2022-11-25T20:46:23.066Z,110.40
2022-11-25T20:51:25.417Z,94.80
2022-11-25T20:56:27.888Z,81.57
2022-11-25T21:01:29.827Z,80.63
2022-11-25T21:06:41.131Z,77.72
2022-11-25T21:11:43.395Z,70.18
2022-11-25T21:16:46.205Z,85.75
2022-11-25T21:21:50.431Z,88.40
2022-11-25T21:26:53.011Z,100.13
2022-11-25T21:31:55.315Z,93.18
2022-11-25T21:36:58.258Z,86.22
2022-11-25T21:42:05.006Z,87.03
2022-11-25T21:47:19.188Z,84.35
2022-11-25T21:52:21.423Z,84.13
2022-11-25T21:57:27.762Z,95.17
2022-11-25T22:02:30.402Z,86.13
2022-11-25T22:07:32.428Z,87.85
2022-11-25T22:12:39.776Z,88.22
2022-11-25T22:17:44.790Z,81.43
2022-11-25T22:22:46.635Z,87.05
2022-11-25T22:27:49.209Z,97.57
2022-11-25T22:32:59.967Z,107.95
2022-11-25T22:38:02.461Z,86.28
2022-11-25T22:43:04.800Z,100.28
2022-11-25T22:48:06.844Z,124.30
2022-11-25T22:53:14.837Z,100.05
2022-11-25T22:58:17.943Z,101.15
2022-11-25T23:03:21.971Z,84.37
2022-11-25T23:08:27.528Z,82.75
2022-11-25T23:13:29.692Z,84.22
2022-11-25T23:18:44.873Z,116.18
2022-11-25T23:23:46.798Z,109.50
2022-11-25T23:28:49.022Z,107.18
2022-11-25T23:33:52.405Z,114.20
2022-11-25T23:39:03.202Z,97.72
2022-11-25T23:44:23.771Z,123.47
2022-11-25T23:49:29.997Z,97.43
2022-11-25T23:54:40.875Z,95.00
2022-11-25T23:59:43.975Z,93.43
